Sailor Springs, Illinois
Current Conditions -  °F | °C
As of 12:35 AM on Wednesday 28 Jan 2015 (Local Time) from KFOA Reporting Station
Clear Clear  
Wind Chill: 19°   Ceiling: Unl
Heat Index: 26°   Visibility: 7mi
Dew Point: 24°   Wind: 6mph
Humidity: 92%   Direction: 80°E
Pressure: 30.28"   Gusts: NA
Location:  38.76°N, 88.36°W
Report Text: KFOA 280635Z AUTO 08005KT 7SM CLR M03/M04 A3028 RMK AO2 T10341045
Loading
Personal Weather Stations






























Interactive Weather Map New forecast layout! Learn more

10-Day Weather Forecast

Advertisements
Track Severe Weather on mobile